sensor_id;sensor_type;location;lat;lon;timestamp;temperature;humidity
48376;DHT22;34178;50.904;11.560;2023-02-28T00:00:08;-0.90;99.90
48376;DHT22;34178;50.904;11.560;2023-02-28T00:02:36;-0.80;99.90
48376;DHT22;34178;50.904;11.560;2023-02-28T00:05:02;-0.70;99.90
48376;DHT22;34178;50.904;11.560;2023-02-28T00:07:29;-0.70;99.90
48376;DHT22;34178;50.904;11.560;2023-02-28T00:09:55;-0.70;99.90
48376;DHT22;34178;50.904;11.560;2023-02-28T00:12:21;-0.70;99.90
48376;DHT22;34178;50.904;11.560;2023-02-28T00:14:46;-0.90;99.90
48376;DHT22;34178;50.904;11.560;2023-02-28T00:17:12;-1.00;99.90
48376;DHT22;34178;50.904;11.560;2023-02-28T00:19:38;-1.00;99.90
48376;DHT22;34178;50.904;11.560;2023-02-28T00:22:03;-0.90;99.90
48376;DHT22;34178;50.904;11.560;2023-02-28T00:24:29;-0.80;99.90
48376;DHT22;34178;50.904;11.560;2023-02-28T00:26:54;-0.90;99.90
48376;DHT22;34178;50.904;11.560;2023-02-28T00:29:20;-1.00;99.90
48376;DHT22;34178;50.904;11.560;2023-02-28T00:31:46;-0.90;99.90
48376;DHT22;34178;50.904;11.560;2023-02-28T00:34:11;-0.80;99.90
48376;DHT22;34178;50.904;11.560;2023-02-28T00:36:37;-0.70;99.90
48376;DHT22;34178;50.904;11.560;2023-02-28T00:39:03;-0.60;99.90
48376;DHT22;34178;50.904;11.560;2023-02-28T00:41:29;-0.60;99.90
48376;DHT22;34178;50.904;11.560;2023-02-28T00:43:54;-0.60;99.90
48376;DHT22;34178;50.904;11.560;2023-02-28T00:46:20;-0.80;99.90
48376;DHT22;34178;50.904;11.560;2023-02-28T00:48:46;-0.80;99.90
48376;DHT22;34178;50.904;11.560;2023-02-28T00:51:11;-0.70;99.90
48376;DHT22;34178;50.904;11.560;2023-02-28T00:53:37;-0.60;99.90
48376;DHT22;34178;50.904;11.560;2023-02-28T00:56:03;-0.60;99.90
48376;DHT22;34178;50.904;11.560;2023-02-28T00:58:29;-0.70;99.90
48376;DHT22;34178;50.904;11.560;2023-02-28T01:00:55;-0.90;99.90
48376;DHT22;34178;50.904;11.560;2023-02-28T01:03:22;-0.90;99.90
48376;DHT22;34178;50.904;11.560;2023-02-28T01:05:48;-0.90;99.90
48376;DHT22;34178;50.904;11.560;2023-02-28T01:08:14;-0.90;99.90
48376;DHT22;34178;50.904;11.560;2023-02-28T01:10:40;-0.80;99.90
48376;DHT22;34178;50.904;11.560;2023-02-28T01:13:06;-0.70;99.90
48376;DHT22;34178;50.904;11.560;2023-02-28T01:15:32;-0.60;99.90
48376;DHT22;34178;50.904;11.560;2023-02-28T01:17:58;-0.60;99.90
48376;DHT22;34178;50.904;11.560;2023-02-28T01:20:24;-0.50;99.90
48376;DHT22;34178;50.904;11.560;2023-02-28T01:22:50;-0.50;99.90
48376;DHT22;34178;50.904;11.560;2023-02-28T01:25:15;-0.40;99.90
48376;DHT22;34178;50.904;11.560;2023-02-28T01:27:41;-0.40;99.90
48376;DHT22;34178;50.904;11.560;2023-02-28T01:30:08;-0.50;99.90
48376;DHT22;34178;50.904;11.560;2023-02-28T01:32:34;-0.50;99.90
48376;DHT22;34178;50.904;11.560;2023-02-28T01:35:00;-0.40;99.90
48376;DHT22;34178;50.904;11.560;2023-02-28T01:37:25;-0.60;99.90
48376;DHT22;34178;50.904;11.560;2023-02-28T01:39:52;-0.60;99.90
48376;DHT22;34178;50.904;11.560;2023-02-28T01:42:17;-0.60;99.90
48376;DHT22;34178;50.904;11.560;2023-02-28T01:45:22;-0.50;99.90
48376;DHT22;34178;50.904;11.560;2023-02-28T01:47:53;-0.50;99.90
48376;DHT22;34178;50.904;11.560;2023-02-28T01:50:23;-0.50;99.90
48376;DHT22;34178;50.904;11.560;2023-02-28T01:52:49;-0.50;99.90
48376;DHT22;34178;50.904;11.560;2023-02-28T01:55:18;-0.50;99.90
48376;DHT22;34178;50.904;11.560;2023-02-28T01:57:52;-0.60;99.90
48376;DHT22;34178;50.904;11.560;2023-02-28T02:00:23;-0.50;99.90
48376;DHT22;34178;50.904;11.560;2023-02-28T02:02:52;-0.70;99.90
48376;DHT22;34178;50.904;11.560;2023-02-28T02:05:21;-0.70;99.90
48376;DHT22;34178;50.904;11.560;2023-02-28T02:08:02;-0.80;99.90
48376;DHT22;34178;50.904;11.560;2023-02-28T02:10:40;-0.70;99.90
48376;DHT22;34178;50.904;11.560;2023-02-28T02:18:52;-0.80;99.90
48376;DHT22;34178;50.904;11.560;2023-02-28T02:35:23;-1.60;99.90
48376;DHT22;34178;50.904;11.560;2023-02-28T02:37:57;-1.60;99.90
48376;DHT22;34178;50.904;11.560;2023-02-28T02:40:32;-1.70;99.90
48376;DHT22;34178;50.904;11.560;2023-02-28T02:43:12;-1.70;99.90
48376;DHT22;34178;50.904;11.560;2023-02-28T02:45:43;-1.60;99.90
48376;DHT22;34178;50.904;11.560;2023-02-28T02:48:12;-1.60;99.90
48376;DHT22;34178;50.904;11.560;2023-02-28T02:50:53;-1.50;99.90
48376;DHT22;34178;50.904;11.560;2023-02-28T02:53:26;-1.40;99.90
48376;DHT22;34178;50.904;11.560;2023-02-28T02:55:54;-1.40;99.90
48376;DHT22;34178;50.904;11.560;2023-02-28T02:58:27;-1.40;99.90
48376;DHT22;34178;50.904;11.560;2023-02-28T03:00:58;-1.60;99.90
48376;DHT22;34178;50.904;11.560;2023-02-28T03:03:25;-1.80;99.90
48376;DHT22;34178;50.904;11.560;2023-02-28T03:05:57;-1.70;99.90
48376;DHT22;34178;50.904;11.560;2023-02-28T03:08:23;-1.70;99.90
48376;DHT22;34178;50.904;11.560;2023-02-28T03:10:59;-2.10;99.90
48376;DHT22;34178;50.904;11.560;2023-02-28T03:13:37;-2.00;99.90
48376;DHT22;34178;50.904;11.560;2023-02-28T03:23:59;-1.90;99.90
48376;DHT22;34178;50.904;11.560;2023-02-28T03:26:30;-2.00;99.90
48376;DHT22;34178;50.904;11.560;2023-02-28T03:32:05;-1.80;99.90
48376;DHT22;34178;50.904;11.560;2023-02-28T03:34:39;-1.70;99.90
48376;DHT22;34178;50.904;11.560;2023-02-28T03:37:18;-1.60;99.90
48376;DHT22;34178;50.904;11.560;2023-02-28T03:39:49;-1.60;99.90
48376;DHT22;34178;50.904;11.560;2023-02-28T03:42:18;-1.60;99.90
48376;DHT22;34178;50.904;11.560;2023-02-28T03:44:56;-1.60;99.90
48376;DHT22;34178;50.904;11.560;2023-02-28T03:47:33;-1.70;99.90
48376;DHT22;34178;50.904;11.560;2023-02-28T03:52:50;-1.60;99.90
48376;DHT22;34178;50.904;11.560;2023-02-28T03:55:18;-1.60;99.90
48376;DHT22;34178;50.904;11.560;2023-02-28T04:00:24;-1.50;99.90
48376;DHT22;34178;50.904;11.560;2023-02-28T04:02:54;-1.50;99.90
48376;DHT22;34178;50.904;11.560;2023-02-28T04:05:21;-1.70;99.90
48376;DHT22;34178;50.904;11.560;2023-02-28T04:07:47;-1.70;99.90
48376;DHT22;34178;50.904;11.560;2023-02-28T04:10:15;-1.80;99.90
48376;DHT22;34178;50.904;11.560;2023-02-28T04:12:41;-1.70;99.90
48376;DHT22;34178;50.904;11.560;2023-02-28T04:15:07;-1.60;99.90
48376;DHT22;34178;50.904;11.560;2023-02-28T04:17:33;-1.60;99.90
48376;DHT22;34178;50.904;11.560;2023-02-28T04:19:58;-1.60;99.90
48376;DHT22;34178;50.904;11.560;2023-02-28T04:22:24;-1.60;99.90
48376;DHT22;34178;50.904;11.560;2023-02-28T04:24:53;-1.60;99.90
48376;DHT22;34178;50.904;11.560;2023-02-28T04:27:20;-1.60;99.90
48376;DHT22;34178;50.904;11.560;2023-02-28T04:29:46;-1.60;99.90
48376;DHT22;34178;50.904;11.560;2023-02-28T04:32:12;-1.70;99.90
48376;DHT22;34178;50.904;11.560;2023-02-28T04:34:38;-1.70;99.90
48376;DHT22;34178;50.904;11.560;2023-02-28T04:37:06;-1.90;99.90
48376;DHT22;34178;50.904;11.560;2023-02-28T04:39:35;-2.00;99.90
48376;DHT22;34178;50.904;11.560;2023-02-28T04:42:01;-1.90;99.90
48376;DHT22;34178;50.904;11.560;2023-02-28T04:44:26;-1.80;99.90
48376;DHT22;34178;50.904;11.560;2023-02-28T04:46:52;-1.80;99.90
48376;DHT22;34178;50.904;11.560;2023-02-28T04:51:45;-1.70;99.90
48376;DHT22;34178;50.904;11.560;2023-02-28T04:54:11;-1.80;99.90
48376;DHT22;34178;50.904;11.560;2023-02-28T04:56:38;-1.80;99.90
48376;DHT22;34178;50.904;11.560;2023-02-28T04:59:04;-1.70;99.90
48376;DHT22;34178;50.904;11.560;2023-02-28T05:01:32;-1.70;99.90
48376;DHT22;34178;50.904;11.560;2023-02-28T05:04:00;-1.80;99.90
48376;DHT22;34178;50.904;11.560;2023-02-28T05:06:28;-1.80;99.90
48376;DHT22;34178;50.904;11.560;2023-02-28T05:08:54;-1.90;99.90
48376;DHT22;34178;50.904;11.560;2023-02-28T05:11:20;-2.10;99.90
48376;DHT22;34178;50.904;11.560;2023-02-28T05:13:47;-2.20;99.90
48376;DHT22;34178;50.904;11.560;2023-02-28T05:16:13;-2.40;99.90
48376;DHT22;34178;50.904;11.560;2023-02-28T05:18:39;-2.40;99.90
48376;DHT22;34178;50.904;11.560;2023-02-28T05:21:05;-2.40;99.90
48376;DHT22;34178;50.904;11.560;2023-02-28T05:23:31;-2.50;99.90
48376;DHT22;34178;50.904;11.560;2023-02-28T05:25:56;-2.50;99.90
48376;DHT22;34178;50.904;11.560;2023-02-28T05:28:22;-2.60;99.90
48376;DHT22;34178;50.904;11.560;2023-02-28T05:30:48;-2.60;99.90
48376;DHT22;34178;50.904;11.560;2023-02-28T05:33:15;-2.70;99.90
48376;DHT22;34178;50.904;11.560;2023-02-28T05:35:41;-2.70;99.90
48376;DHT22;34178;50.904;11.560;2023-02-28T05:38:08;-2.70;99.90
48376;DHT22;34178;50.904;11.560;2023-02-28T05:40:34;-2.80;99.90
48376;DHT22;34178;50.904;11.560;2023-02-28T05:43:00;-2.90;99.90
48376;DHT22;34178;50.904;11.560;2023-02-28T05:45:25;-2.90;99.90
48376;DHT22;34178;50.904;11.560;2023-02-28T05:47:55;-3.00;99.90
48376;DHT22;34178;50.904;11.560;2023-02-28T05:50:20;-3.10;99.90
48376;DHT22;34178;50.904;11.560;2023-02-28T05:52:52;-3.30;99.90
48376;DHT22;34178;50.904;11.560;2023-02-28T05:55:18;-3.40;99.90
48376;DHT22;34178;50.904;11.560;2023-02-28T05:57:44;-3.30;99.90
48376;DHT22;34178;50.904;11.560;2023-02-28T06:00:10;-3.30;99.90
48376;DHT22;34178;50.904;11.560;2023-02-28T06:02:38;-3.20;99.90
48376;DHT22;34178;50.904;11.560;2023-02-28T06:05:04;-3.20;99.90
48376;DHT22;34178;50.904;11.560;2023-02-28T06:07:29;-3.30;99.90
48376;DHT22;34178;50.904;11.560;2023-02-28T06:09:55;-3.20;99.90
48376;DHT22;34178;50.904;11.560;2023-02-28T06:12:21;-3.20;99.90
48376;DHT22;34178;50.904;11.560;2023-02-28T06:14:46;-3.20;99.90
48376;DHT22;34178;50.904;11.560;2023-02-28T06:17:12;-3.30;99.90
48376;DHT22;34178;50.904;11.560;2023-02-28T06:19:38;-3.30;99.90
48376;DHT22;34178;50.904;11.560;2023-02-28T06:22:04;-3.40;99.90
48376;DHT22;34178;50.904;11.560;2023-02-28T06:24:30;-3.30;99.90
48376;DHT22;34178;50.904;11.560;2023-02-28T06:26:57;-3.40;99.90
48376;DHT22;34178;50.904;11.560;2023-02-28T06:29:24;-3.40;99.90
48376;DHT22;34178;50.904;11.560;2023-02-28T06:31:50;-3.40;99.90
48376;DHT22;34178;50.904;11.560;2023-02-28T06:34:16;-3.40;99.90
48376;DHT22;34178;50.904;11.560;2023-02-28T06:36:42;-3.40;99.90
48376;DHT22;34178;50.904;11.560;2023-02-28T06:39:08;-3.40;99.90
48376;DHT22;34178;50.904;11.560;2023-02-28T06:41:34;-3.30;99.90
48376;DHT22;34178;50.904;11.560;2023-02-28T06:44:04;-3.30;99.90
48376;DHT22;34178;50.904;11.560;2023-02-28T06:46:31;-3.30;99.90
48376;DHT22;34178;50.904;11.560;2023-02-28T06:48:57;-3.20;99.90
48376;DHT22;34178;50.904;11.560;2023-02-28T06:51:23;-3.20;99.90
48376;DHT22;34178;50.904;11.560;2023-02-28T06:53:50;-3.20;99.90
48376;DHT22;34178;50.904;11.560;2023-02-28T06:56:17;-3.20;99.90
48376;DHT22;34178;50.904;11.560;2023-02-28T06:58:46;-3.10;99.90
48376;DHT22;34178;50.904;11.560;2023-02-28T07:01:14;-3.10;99.90
48376;DHT22;34178;50.904;11.560;2023-02-28T07:03:39;-3.10;99.90
48376;DHT22;34178;50.904;11.560;2023-02-28T07:06:06;-3.10;99.90
48376;DHT22;34178;50.904;11.560;2023-02-28T07:08:32;-3.00;99.90
48376;DHT22;34178;50.904;11.560;2023-02-28T07:10:58;-3.00;99.90
48376;DHT22;34178;50.904;11.560;2023-02-28T07:13:24;-3.00;99.90
48376;DHT22;34178;50.904;11.560;2023-02-28T07:15:58;-3.00;99.90
48376;DHT22;34178;50.904;11.560;2023-02-28T07:18:24;-3.00;99.90
48376;DHT22;34178;50.904;11.560;2023-02-28T07:20:50;-3.00;99.90
48376;DHT22;34178;50.904;11.560;2023-02-28T07:23:17;-3.10;99.90
48376;DHT22;34178;50.904;11.560;2023-02-28T07:25:42;-3.00;99.90
48376;DHT22;34178;50.904;11.560;2023-02-28T07:28:09;-3.00;99.90
48376;DHT22;34178;50.904;11.560;2023-02-28T07:30:34;-3.00;99.90
48376;DHT22;34178;50.904;11.560;2023-02-28T07:33:00;-3.10;99.90
48376;DHT22;34178;50.904;11.560;2023-02-28T07:35:26;-3.10;99.90
48376;DHT22;34178;50.904;11.560;2023-02-28T07:37:51;-3.10;99.90
48376;DHT22;34178;50.904;11.560;2023-02-28T07:40:17;-3.00;99.90
48376;DHT22;34178;50.904;11.560;2023-02-28T07:42:43;-2.90;99.90
48376;DHT22;34178;50.904;11.560;2023-02-28T07:45:10;-3.00;99.90
48376;DHT22;34178;50.904;11.560;2023-02-28T07:47:41;-2.90;99.90
48376;DHT22;34178;50.904;11.560;2023-02-28T07:50:09;-2.80;99.90
48376;DHT22;34178;50.904;11.560;2023-02-28T07:52:36;-2.60;99.90
48376;DHT22;34178;50.904;11.560;2023-02-28T07:55:03;-2.50;99.90
48376;DHT22;34178;50.904;11.560;2023-02-28T07:57:30;-2.20;99.90
48376;DHT22;34178;50.904;11.560;2023-02-28T07:59:55;-2.10;99.90
48376;DHT22;34178;50.904;11.560;2023-02-28T08:02:21;-2.00;99.90
48376;DHT22;34178;50.904;11.560;2023-02-28T08:04:47;-1.90;99.90
48376;DHT22;34178;50.904;11.560;2023-02-28T08:07:14;-1.70;99.90
48376;DHT22;34178;50.904;11.560;2023-02-28T08:09:40;-1.40;99.90
48376;DHT22;34178;50.904;11.560;2023-02-28T08:12:07;-1.20;99.90
48376;DHT22;34178;50.904;11.560;2023-02-28T08:14:33;-0.90;99.90
48376;DHT22;34178;50.904;11.560;2023-02-28T08:16:58;-0.70;99.90
48376;DHT22;34178;50.904;11.560;2023-02-28T08:19:24;-0.60;99.90
48376;DHT22;34178;50.904;11.560;2023-02-28T08:21:50;-0.40;99.90
48376;DHT22;34178;50.904;11.560;2023-02-28T08:24:15;-0.20;99.90
48376;DHT22;34178;50.904;11.560;2023-02-28T08:26:41;0.00;99.90
48376;DHT22;34178;50.904;11.560;2023-02-28T08:29:07;0.20;99.90
48376;DHT22;34178;50.904;11.560;2023-02-28T08:31:32;0.30;99.90
48376;DHT22;34178;50.904;11.560;2023-02-28T08:33:58;0.40;99.90
48376;DHT22;34178;50.904;11.560;2023-02-28T08:36:25;0.40;99.90
48376;DHT22;34178;50.904;11.560;2023-02-28T08:38:51;0.50;99.90
48376;DHT22;34178;50.904;11.560;2023-02-28T08:41:17;0.60;99.90
48376;DHT22;34178;50.904;11.560;2023-02-28T08:43:43;0.60;99.90
48376;DHT22;34178;50.904;11.560;2023-02-28T08:46:12;0.70;99.90
48376;DHT22;34178;50.904;11.560;2023-02-28T08:48:39;0.80;99.90
48376;DHT22;34178;50.904;11.560;2023-02-28T08:51:07;0.90;99.90
48376;DHT22;34178;50.904;11.560;2023-02-28T08:53:35;0.90;99.90
48376;DHT22;34178;50.904;11.560;2023-02-28T08:56:07;1.00;99.90
48376;DHT22;34178;50.904;11.560;2023-02-28T08:58:33;1.10;99.90
48376;DHT22;34178;50.904;11.560;2023-02-28T09:00:59;1.10;99.90
48376;DHT22;34178;50.904;11.560;2023-02-28T09:03:25;1.20;99.90
48376;DHT22;34178;50.904;11.560;2023-02-28T09:05:54;1.30;99.90
48376;DHT22;34178;50.904;11.560;2023-02-28T09:08:20;1.30;99.90
48376;DHT22;34178;50.904;11.560;2023-02-28T09:10:46;1.40;99.90
48376;DHT22;34178;50.904;11.560;2023-02-28T09:13:12;1.50;99.90
48376;DHT22;34178;50.904;11.560;2023-02-28T09:15:38;1.60;99.90
48376;DHT22;34178;50.904;11.560;2023-02-28T09:18:04;1.70;99.90
48376;DHT22;34178;50.904;11.560;2023-02-28T09:20:30;1.80;99.90
48376;DHT22;34178;50.904;11.560;2023-02-28T09:22:55;1.90;99.90
48376;DHT22;34178;50.904;11.560;2023-02-28T09:25:21;2.00;99.90
48376;DHT22;34178;50.904;11.560;2023-02-28T09:27:47;2.00;99.90
48376;DHT22;34178;50.904;11.560;2023-02-28T09:30:14;2.10;99.90
48376;DHT22;34178;50.904;11.560;2023-02-28T09:32:40;2.20;99.90
48376;DHT22;34178;50.904;11.560;2023-02-28T09:35:06;2.30;99.90
48376;DHT22;34178;50.904;11.560;2023-02-28T09:37:32;2.50;99.90
48376;DHT22;34178;50.904;11.560;2023-02-28T09:39:57;2.50;99.90
48376;DHT22;34178;50.904;11.560;2023-02-28T09:42:41;2.60;99.90
48376;DHT22;34178;50.904;11.560;2023-02-28T09:45:29;2.80;99.60
48376;DHT22;34178;50.904;11.560;2023-02-28T09:48:01;3.00;98.90
48376;DHT22;34178;50.904;11.560;2023-02-28T09:50:41;2.90;98.10
48376;DHT22;34178;50.904;11.560;2023-02-28T09:56:18;3.10;98.40
48376;DHT22;34178;50.904;11.560;2023-02-28T09:58:55;3.00;97.40
48376;DHT22;34178;50.904;11.560;2023-02-28T10:01:34;3.00;98.60
48376;DHT22;34178;50.904;11.560;2023-02-28T10:06:53;2.90;97.90
48376;DHT22;34178;50.904;11.560;2023-02-28T10:09:23;3.00;97.00
48376;DHT22;34178;50.904;11.560;2023-02-28T10:11:52;2.80;97.50
48376;DHT22;34178;50.904;11.560;2023-02-28T10:14:19;2.80;97.10
48376;DHT22;34178;50.904;11.560;2023-02-28T10:17:05;2.80;97.20
48376;DHT22;34178;50.904;11.560;2023-02-28T10:22:25;2.70;97.20
48376;DHT22;34178;50.904;11.560;2023-02-28T10:24:54;2.70;96.60
48376;DHT22;34178;50.904;11.560;2023-02-28T10:27:28;2.70;97.10
48376;DHT22;34178;50.904;11.560;2023-02-28T10:29:56;2.50;96.80
48376;DHT22;34178;50.904;11.560;2023-02-28T10:32:30;2.40;97.20
48376;DHT22;34178;50.904;11.560;2023-02-28T10:35:21;2.30;96.90
48376;DHT22;34178;50.904;11.560;2023-02-28T10:37:54;2.10;97.00
48376;DHT22;34178;50.904;11.560;2023-02-28T10:45:26;2.30;97.10
48376;DHT22;34178;50.904;11.560;2023-02-28T10:56:18;2.50;96.90
48376;DHT22;34178;50.904;11.560;2023-02-28T10:58:51;2.60;96.60
48376;DHT22;34178;50.904;11.560;2023-02-28T11:01:24;2.60;96.30
48376;DHT22;34178;50.904;11.560;2023-02-28T11:03:51;2.60;96.70
48376;DHT22;34178;50.904;11.560;2023-02-28T11:06:21;2.70;96.80
48376;DHT22;34178;50.904;11.560;2023-02-28T11:08:53;2.90;96.60
48376;DHT22;34178;50.904;11.560;2023-02-28T11:11:21;2.90;96.60
48376;DHT22;34178;50.904;11.560;2023-02-28T11:13:51;2.90;97.20
48376;DHT22;34178;50.904;11.560;2023-02-28T11:16:18;3.00;96.90
48376;DHT22;34178;50.904;11.560;2023-02-28T11:18:53;3.00;97.40
48376;DHT22;34178;50.904;11.560;2023-02-28T11:21:36;3.20;98.10
48376;DHT22;34178;50.904;11.560;2023-02-28T11:24:29;3.20;95.90
48376;DHT22;34178;50.904;11.560;2023-02-28T11:26:56;3.20;97.00
48376;DHT22;34178;50.904;11.560;2023-02-28T11:29:23;3.40;97.60
48376;DHT22;34178;50.904;11.560;2023-02-28T11:34:28;3.50;97.70
48376;DHT22;34178;50.904;11.560;2023-02-28T11:36:56;3.60;97.20
48376;DHT22;34178;50.904;11.560;2023-02-28T11:39:23;3.70;97.60
48376;DHT22;34178;50.904;11.560;2023-02-28T11:53:17;3.80;98.20
48376;DHT22;34178;50.904;11.560;2023-02-28T11:56:05;4.00;97.70
48376;DHT22;34178;50.904;11.560;2023-02-28T11:58:50;4.30;96.70
48376;DHT22;34178;50.904;11.560;2023-02-28T12:06:40;5.00;96.30
48376;DHT22;34178;50.904;11.560;2023-02-28T12:28:26;6.70;92.50
48376;DHT22;34178;50.904;11.560;2023-02-28T12:30:58;6.90;93.70
48376;DHT22;34178;50.904;11.560;2023-02-28T12:33:33;7.30;92.40
48376;DHT22;34178;50.904;11.560;2023-02-28T12:36:05;7.50;91.50
48376;DHT22;34178;50.904;11.560;2023-02-28T12:38:43;7.70;92.40
48376;DHT22;34178;50.904;11.560;2023-02-28T12:41:13;7.90;90.70
48376;DHT22;34178;50.904;11.560;2023-02-28T12:43:45;8.10;90.60
48376;DHT22;34178;50.904;11.560;2023-02-28T12:48:44;8.70;88.70
48376;DHT22;34178;50.904;11.560;2023-02-28T12:51:12;8.90;87.10
48376;DHT22;34178;50.904;11.560;2023-02-28T12:56:23;9.40;86.60
48376;DHT22;34178;50.904;11.560;2023-02-28T13:02:09;10.00;86.20
48376;DHT22;34178;50.904;11.560;2023-02-28T13:10:49;10.00;81.90
48376;DHT22;34178;50.904;11.560;2023-02-28T13:13:24;9.80;83.40
48376;DHT22;34178;50.904;11.560;2023-02-28T13:16:11;10.10;83.50
48376;DHT22;34178;50.904;11.560;2023-02-28T13:18:44;10.60;82.80
48376;DHT22;34178;50.904;11.560;2023-02-28T13:21:43;10.80;81.30
48376;DHT22;34178;50.904;11.560;2023-02-28T13:24:10;10.90;80.20
48376;DHT22;34178;50.904;11.560;2023-02-28T13:34:35;11.50;79.00
48376;DHT22;34178;50.904;11.560;2023-02-28T13:58:22;11.80;77.60
48376;DHT22;34178;50.904;11.560;2023-02-28T14:06:28;12.10;73.60
48376;DHT22;34178;50.904;11.560;2023-02-28T14:11:44;11.90;74.30
48376;DHT22;34178;50.904;11.560;2023-02-28T14:17:01;11.60;74.70
48376;DHT22;34178;50.904;11.560;2023-02-28T14:19:31;11.50;74.10
48376;DHT22;34178;50.904;11.560;2023-02-28T14:27:24;11.50;76.20
48376;DHT22;34178;50.904;11.560;2023-02-28T14:33:14;12.00;73.50
48376;DHT22;34178;50.904;11.560;2023-02-28T14:36:04;12.10;73.70
48376;DHT22;34178;50.904;11.560;2023-02-28T14:38:45;12.10;73.80
48376;DHT22;34178;50.904;11.560;2023-02-28T14:41:21;12.20;73.20
48376;DHT22;34178;50.904;11.560;2023-02-28T14:43:52;11.90;72.90
48376;DHT22;34178;50.904;11.560;2023-02-28T14:46:18;11.70;73.70
48376;DHT22;34178;50.904;11.560;2023-02-28T14:48:49;11.70;74.70
48376;DHT22;34178;50.904;11.560;2023-02-28T14:51:20;12.00;74.20
48376;DHT22;34178;50.904;11.560;2023-02-28T14:53:59;12.50;73.80
48376;DHT22;34178;50.904;11.560;2023-02-28T14:56:32;12.30;70.50
48376;DHT22;34178;50.904;11.560;2023-02-28T14:58:58;12.20;71.90
48376;DHT22;34178;50.904;11.560;2023-02-28T15:01:25;12.30;73.10
48376;DHT22;34178;50.904;11.560;2023-02-28T15:03:59;12.30;71.50
48376;DHT22;34178;50.904;11.560;2023-02-28T15:06:26;12.40;72.10
48376;DHT22;34178;50.904;11.560;2023-02-28T15:09:15;12.30;70.70
48376;DHT22;34178;50.904;11.560;2023-02-28T15:11:41;12.40;71.80
48376;DHT22;34178;50.904;11.560;2023-02-28T15:14:12;12.70;70.30
48376;DHT22;34178;50.904;11.560;2023-02-28T15:16:41;12.40;69.10
48376;DHT22;34178;50.904;11.560;2023-02-28T15:19:24;11.60;71.30
48376;DHT22;34178;50.904;11.560;2023-02-28T15:21:59;11.30;71.70
48376;DHT22;34178;50.904;11.560;2023-02-28T15:24:50;11.20;71.80
48376;DHT22;34178;50.904;11.560;2023-02-28T15:27:29;11.10;71.50
48376;DHT22;34178;50.904;11.560;2023-02-28T15:30:00;11.10;72.60
48376;DHT22;34178;50.904;11.560;2023-02-28T15:32:35;10.70;73.50
48376;DHT22;34178;50.904;11.560;2023-02-28T15:35:27;10.10;73.90
48376;DHT22;34178;50.904;11.560;2023-02-28T15:38:40;9.60;74.10
48376;DHT22;34178;50.904;11.560;2023-02-28T15:40:44;9.20;76.40
48376;DHT22;34178;50.904;11.560;2023-02-28T15:43:31;8.80;76.30
48376;DHT22;34178;50.904;11.560;2023-02-28T15:46:07;8.30;76.40
48376;DHT22;34178;50.904;11.560;2023-02-28T15:48:54;7.90;78.30
48376;DHT22;34178;50.904;11.560;2023-02-28T15:51:36;7.50;80.30
48376;DHT22;34178;50.904;11.560;2023-02-28T15:54:06;7.40;81.00
48376;DHT22;34178;50.904;11.560;2023-02-28T15:56:38;7.20;82.20
48376;DHT22;34178;50.904;11.560;2023-02-28T15:59:07;7.20;81.30
48376;DHT22;34178;50.904;11.560;2023-02-28T16:01:35;7.00;81.30
48376;DHT22;34178;50.904;11.560;2023-02-28T16:04:04;7.00;82.10
48376;DHT22;34178;50.904;11.560;2023-02-28T16:06:40;6.90;82.40
48376;DHT22;34178;50.904;11.560;2023-02-28T16:09:10;6.80;81.70
48376;DHT22;34178;50.904;11.560;2023-02-28T16:11:48;6.70;83.60
48376;DHT22;34178;50.904;11.560;2023-02-28T16:14:22;6.50;82.10
48376;DHT22;34178;50.904;11.560;2023-02-28T16:16:54;6.00;83.00
48376;DHT22;34178;50.904;11.560;2023-02-28T16:19:21;5.90;83.70
48376;DHT22;34178;50.904;11.560;2023-02-28T16:21:47;5.80;84.10
48376;DHT22;34178;50.904;11.560;2023-02-28T16:24:13;5.50;85.00
48376;DHT22;34178;50.904;11.560;2023-02-28T16:26:40;5.40;84.40
48376;DHT22;34178;50.904;11.560;2023-02-28T16:29:08;5.30;86.20
48376;DHT22;34178;50.904;11.560;2023-02-28T16:31:37;5.10;86.00
48376;DHT22;34178;50.904;11.560;2023-02-28T16:34:03;5.00;85.30
48376;DHT22;34178;50.904;11.560;2023-02-28T16:36:29;5.00;87.20
48376;DHT22;34178;50.904;11.560;2023-02-28T16:38:55;4.90;87.00
48376;DHT22;34178;50.904;11.560;2023-02-28T16:41:25;4.80;88.40
48376;DHT22;34178;50.904;11.560;2023-02-28T16:43:51;4.70;87.40
48376;DHT22;34178;50.904;11.560;2023-02-28T16:46:18;4.60;88.10
48376;DHT22;34178;50.904;11.560;2023-02-28T16:48:45;4.50;87.80
48376;DHT22;34178;50.904;11.560;2023-02-28T16:51:18;4.30;88.70
48376;DHT22;34178;50.904;11.560;2023-02-28T16:53:45;4.20;90.00
48376;DHT22;34178;50.904;11.560;2023-02-28T16:56:18;4.10;89.60
48376;DHT22;34178;50.904;11.560;2023-02-28T16:58:44;4.00;89.90
48376;DHT22;34178;50.904;11.560;2023-02-28T17:01:10;3.80;89.60
48376;DHT22;34178;50.904;11.560;2023-02-28T17:03:36;3.70;90.10
48376;DHT22;34178;50.904;11.560;2023-02-28T17:06:04;3.70;90.40
48376;DHT22;34178;50.904;11.560;2023-02-28T17:08:30;3.50;90.10
48376;DHT22;34178;50.904;11.560;2023-02-28T17:10:58;3.40;90.30
48376;DHT22;34178;50.904;11.560;2023-02-28T17:13:23;3.30;90.20
48376;DHT22;34178;50.904;11.560;2023-02-28T17:15:49;3.10;90.70
48376;DHT22;34178;50.904;11.560;2023-02-28T17:18:17;3.00;91.20
48376;DHT22;34178;50.904;11.560;2023-02-28T17:20:47;2.90;91.10
48376;DHT22;34178;50.904;11.560;2023-02-28T17:23:13;2.90;91.00
48376;DHT22;34178;50.904;11.560;2023-02-28T17:25:38;2.70;91.40
48376;DHT22;34178;50.904;11.560;2023-02-28T17:28:04;2.70;91.70
48376;DHT22;34178;50.904;11.560;2023-02-28T17:30:33;2.60;92.20
48376;DHT22;34178;50.904;11.560;2023-02-28T17:33:00;2.70;92.50
48376;DHT22;34178;50.904;11.560;2023-02-28T17:35:25;2.60;92.60
48376;DHT22;34178;50.904;11.560;2023-02-28T17:37:52;2.50;92.40
48376;DHT22;34178;50.904;11.560;2023-02-28T17:40:23;2.40;92.90
48376;DHT22;34178;50.904;11.560;2023-02-28T17:42:48;2.40;93.20
48376;DHT22;34178;50.904;11.560;2023-02-28T17:45:15;2.30;93.30
48376;DHT22;34178;50.904;11.560;2023-02-28T17:47:43;2.30;93.70
48376;DHT22;34178;50.904;11.560;2023-02-28T17:50:19;2.30;93.80
48376;DHT22;34178;50.904;11.560;2023-02-28T17:52:45;2.20;95.00
48376;DHT22;34178;50.904;11.560;2023-02-28T17:55:11;2.10;94.90
48376;DHT22;34178;50.904;11.560;2023-02-28T17:57:37;2.00;94.80
48376;DHT22;34178;50.904;11.560;2023-02-28T18:00:04;1.70;95.50
48376;DHT22;34178;50.904;11.560;2023-02-28T18:02:32;1.50;95.50
48376;DHT22;34178;50.904;11.560;2023-02-28T18:04:58;1.50;96.30
48376;DHT22;34178;50.904;11.560;2023-02-28T18:07:24;1.40;96.70
48376;DHT22;34178;50.904;11.560;2023-02-28T18:09:50;1.30;96.60
48376;DHT22;34178;50.904;11.560;2023-02-28T18:12:16;1.30;96.70
48376;DHT22;34178;50.904;11.560;2023-02-28T18:14:41;1.20;97.30
48376;DHT22;34178;50.904;11.560;2023-02-28T18:17:09;1.10;97.70